createdAt,value
2018-05-27T00:00:48.216Z,822.34
2018-05-27T00:01:48.232Z,822.34
2018-05-27T00:02:48.250Z,822.34
2018-05-27T00:03:48.258Z,822.36
2018-05-27T00:04:48.273Z,822.32
2018-05-27T00:05:48.286Z,822.31
2018-05-27T00:06:48.304Z,822.33
2018-05-27T00:07:48.317Z,822.30
2018-05-27T00:08:48.329Z,822.28
2018-05-27T00:09:48.345Z,822.25
2018-05-27T00:10:48.364Z,822.24
2018-05-27T00:11:48.374Z,822.21
2018-05-27T00:12:48.386Z,822.23
2018-05-27T00:13:48.447Z,822.18
2018-05-27T00:14:48.415Z,822.19
2018-05-27T00:15:48.430Z,822.17
2018-05-27T00:16:48.447Z,822.15
2018-05-27T00:17:48.460Z,822.14
2018-05-27T00:18:48.474Z,822.15
2018-05-27T00:19:48.489Z,822.17
2018-05-27T00:20:48.506Z,822.14
2018-05-27T00:21:48.516Z,822.09
2018-05-27T00:22:48.535Z,822.08
2018-05-27T00:23:48.546Z,822.08
2018-05-27T00:24:48.563Z,822.04
2018-05-27T00:25:48.579Z,821.98
2018-05-27T00:26:48.588Z,821.98
2018-05-27T00:27:48.607Z,821.96
2018-05-27T00:28:48.618Z,821.93
2018-05-27T00:29:48.630Z,821.89
2018-05-27T00:30:48.648Z,821.85
2018-05-27T00:31:48.661Z,821.87
2018-05-27T00:32:48.677Z,821.84
2018-05-27T00:33:48.688Z,821.86
2018-05-27T00:34:48.702Z,821.89
2018-05-27T00:35:48.718Z,821.90
2018-05-27T00:36:48.733Z,821.87
2018-05-27T00:37:48.747Z,821.94
2018-05-27T00:38:48.762Z,821.95
2018-05-27T00:39:48.781Z,821.92
2018-05-27T00:40:48.791Z,821.92
2018-05-27T00:41:48.803Z,821.91
2018-05-27T00:42:48.819Z,821.86
2018-05-27T00:43:48.834Z,821.87
2018-05-27T00:44:48.848Z,821.84
2018-05-27T00:45:48.862Z,821.82
2018-05-27T00:46:48.877Z,821.79
2018-05-27T00:47:48.893Z,821.82
2018-05-27T00:48:48.905Z,821.79
2018-05-27T00:49:48.968Z,821.76
2018-05-27T00:50:48.934Z,821.74
2018-05-27T00:51:48.949Z,821.69
2018-05-27T00:52:48.964Z,821.69
2018-05-27T00:53:48.976Z,821.69
2018-05-27T00:54:48.996Z,821.68
2018-05-27T00:55:49.009Z,821.69
2018-05-27T00:56:49.022Z,821.67
2018-05-27T00:57:49.035Z,821.66
2018-05-27T00:58:49.050Z,821.66
2018-05-27T00:59:49.065Z,821.68
2018-05-27T01:00:49.078Z,821.67
2018-05-27T01:01:49.093Z,821.68
2018-05-27T01:02:49.115Z,821.70
2018-05-27T01:03:49.121Z,821.72
2018-05-27T01:04:49.137Z,821.71
2018-05-27T01:05:49.149Z,821.70
2018-05-27T01:06:49.166Z,821.69
2018-05-27T01:07:49.178Z,821.74
2018-05-27T01:08:49.198Z,821.74
2018-05-27T01:09:49.209Z,821.79
2018-05-27T01:10:49.224Z,821.73
2018-05-27T01:11:49.237Z,821.77
2018-05-27T01:12:49.253Z,821.73
2018-05-27T01:13:49.270Z,821.72
2018-05-27T01:14:49.284Z,821.67
2018-05-27T01:15:49.296Z,821.68
2018-05-27T01:16:49.311Z,821.69
2018-05-27T01:17:49.323Z,821.67
2018-05-27T01:18:49.339Z,821.64
2018-05-27T01:19:49.353Z,821.69
2018-05-27T01:20:49.366Z,821.64
2018-05-27T01:21:49.381Z,821.66
2018-05-27T01:22:49.400Z,821.65
2018-05-27T01:23:49.407Z,821.66
2018-05-27T01:24:49.423Z,821.63
2018-05-27T01:25:49.437Z,821.66
2018-05-27T01:26:49.453Z,821.57
2018-05-27T01:27:49.465Z,821.61
2018-05-27T01:28:49.481Z,821.58
2018-05-27T01:29:49.500Z,821.58
2018-05-27T01:30:49.510Z,821.56
2018-05-27T01:31:49.524Z,821.52
2018-05-27T01:32:49.544Z,821.53
2018-05-27T01:33:49.556Z,821.50
2018-05-27T01:34:49.566Z,821.50
2018-05-27T01:35:49.589Z,821.49
2018-05-27T01:36:49.596Z,821.48
2018-05-27T01:37:49.608Z,821.46
2018-05-27T01:38:49.623Z,821.43
2018-05-27T01:39:49.637Z,821.40
2018-05-27T01:40:49.650Z,821.43
2018-05-27T01:41:49.668Z,821.43
2018-05-27T01:42:49.679Z,821.39
2018-05-27T01:43:49.693Z,821.40
2018-05-27T01:44:49.709Z,821.39
2018-05-27T01:45:49.722Z,821.38
2018-05-27T01:46:49.737Z,821.40
2018-05-27T01:47:49.753Z,821.39
2018-05-27T01:48:49.765Z,821.38
2018-05-27T01:49:49.779Z,821.38
2018-05-27T01:50:49.795Z,821.36
2018-05-27T01:51:49.808Z,821.34
2018-05-27T01:52:49.834Z,821.34
2018-05-27T01:53:49.835Z,821.31
2018-05-27T01:54:49.851Z,821.37
2018-05-27T01:55:49.865Z,821.33
2018-05-27T01:56:49.878Z,821.30
2018-05-27T01:57:49.894Z,821.30
2018-05-27T01:58:49.907Z,821.30
2018-05-27T01:59:49.923Z,821.28
2018-05-27T02:00:49.936Z,821.29
2018-05-27T02:01:49.949Z,821.26
2018-05-27T02:02:49.965Z,821.30
2018-05-27T02:03:49.982Z,821.29
2018-05-27T02:04:49.993Z,821.31
2018-05-27T02:05:50.008Z,821.29
2018-05-27T02:06:50.022Z,821.29
2018-05-27T02:07:50.036Z,821.29
2018-05-27T02:08:50.049Z,821.30
2018-05-27T02:09:50.066Z,821.28
2018-05-27T02:10:50.082Z,821.29
2018-05-27T02:11:50.094Z,821.29
2018-05-27T02:12:50.107Z,821.29
2018-05-27T02:13:50.123Z,821.29
2018-05-27T02:14:50.135Z,821.29
2018-05-27T02:15:50.151Z,821.22
2018-05-27T02:16:50.167Z,821.27
2018-05-27T02:17:50.178Z,821.27
2018-05-27T02:18:50.194Z,821.30
2018-05-27T02:19:50.207Z,821.24
2018-05-27T02:20:50.227Z,821.24
2018-05-27T02:21:50.237Z,821.26
2018-05-27T02:22:50.252Z,821.24
2018-05-27T02:23:50.265Z,821.18
2018-05-27T02:24:50.280Z,821.17
2018-05-27T02:25:50.292Z,821.20
2018-05-27T02:26:50.308Z,821.21
2018-05-27T02:27:50.323Z,821.19
2018-05-27T02:28:50.337Z,821.17
2018-05-27T02:29:50.350Z,821.18
2018-05-27T02:30:50.371Z,821.21
2018-05-27T02:31:50.377Z,821.20
2018-05-27T02:32:50.399Z,821.21
2018-05-27T02:33:50.406Z,821.19
2018-05-27T02:34:50.421Z,821.17
2018-05-27T02:35:50.438Z,821.17
2018-05-27T02:36:50.453Z,821.14
2018-05-27T02:37:50.464Z,821.14
2018-05-27T02:38:50.479Z,821.20
2018-05-27T02:39:50.494Z,821.17
2018-05-27T02:40:50.514Z,821.20
2018-05-27T02:41:50.526Z,821.21
2018-05-27T02:42:50.545Z,821.18
2018-05-27T02:43:50.550Z,821.18
2018-05-27T02:44:50.569Z,821.18
2018-05-27T02:45:50.578Z,821.17
2018-05-27T02:46:50.592Z,821.14
2018-05-27T02:47:50.608Z,821.14
2018-05-27T02:48:50.620Z,821.14
2018-05-27T02:49:50.639Z,821.13
2018-05-27T02:50:50.649Z,821.19
2018-05-27T02:51:50.662Z,821.17
2018-05-27T02:52:50.676Z,821.15
2018-05-27T02:53:50.690Z,821.18
2018-05-27T02:54:50.705Z,821.18
2018-05-27T02:55:50.718Z,821.20
2018-05-27T02:56:50.735Z,821.17
2018-05-27T02:57:50.746Z,821.21
2018-05-27T02:58:50.765Z,821.20
2018-05-27T02:59:50.774Z,821.15
2018-05-27T03:00:50.791Z,821.21
2018-05-27T03:01:50.803Z,821.19
2018-05-27T03:02:50.819Z,821.17
2018-05-27T03:03:50.831Z,821.25
2018-05-27T03:04:50.847Z,821.22
2018-05-27T03:05:50.861Z,821.22
2018-05-27T03:06:50.875Z,821.18
2018-05-27T03:07:50.896Z,821.22
2018-05-27T03:08:50.906Z,821.18
2018-05-27T03:09:50.916Z,821.21
2018-05-27T03:10:50.931Z,821.19
2018-05-27T03:11:50.945Z,821.16
2018-05-27T03:12:50.962Z,821.17
2018-05-27T03:13:50.972Z,821.17
2018-05-27T03:14:50.988Z,821.14
2018-05-27T03:15:51.003Z,821.12
2018-05-27T03:16:51.017Z,821.13
2018-05-27T03:17:51.029Z,821.09
2018-05-27T03:18:51.043Z,821.10
2018-05-27T03:19:51.061Z,821.06
2018-05-27T03:20:51.073Z,821.11
2018-05-27T03:21:51.086Z,821.10
2018-05-27T03:22:51.103Z,821.09
2018-05-27T03:23:51.115Z,821.09
2018-05-27T03:24:51.130Z,821.05
2018-05-27T03:25:51.150Z,821.11
2018-05-27T03:26:51.157Z,821.09
2018-05-27T03:27:51.172Z,821.09
2018-05-27T03:28:51.185Z,821.05
2018-05-27T03:29:51.199Z,821.04
2018-05-27T03:30:51.215Z,821.08
2018-05-27T03:31:51.230Z,821.08
2018-05-27T03:32:51.243Z,821.06
2018-05-27T03:33:51.256Z,821.05
2018-05-27T03:34:51.270Z,821.04
2018-05-27T03:35:51.284Z,821.06
2018-05-27T03:36:51.307Z,821.02
2018-05-27T03:37:51.314Z,821.02
2018-05-27T03:38:51.326Z,821.01
2018-05-27T03:39:51.341Z,821.04
2018-05-27T03:40:51.355Z,821.03
2018-05-27T03:41:51.369Z,821.05
2018-05-27T03:42:51.383Z,821.00
2018-05-27T03:43:51.404Z,821.01
2018-05-27T03:44:51.413Z,821.01
2018-05-27T03:45:51.425Z,820.99
2018-05-27T03:46:51.440Z,821.01
2018-05-27T03:47:51.454Z,821.01
2018-05-27T03:48:51.469Z,821.04
2018-05-27T03:49:51.483Z,821.03
2018-05-27T03:50:51.497Z,821.03
2018-05-27T03:51:51.511Z,820.99
2018-05-27T03:52:51.524Z,821.05
2018-05-27T03:53:51.539Z,821.04
2018-05-27T03:54:51.553Z,821.03
2018-05-27T03:55:51.568Z,821.06
2018-05-27T03:56:51.585Z,821.03
2018-05-27T03:57:51.595Z,821.08
2018-05-27T03:58:51.612Z,821.10
2018-05-27T03:59:51.623Z,821.11
2018-05-27T04:00:51.637Z,821.15
2018-05-27T04:01:51.651Z,821.14
2018-05-27T04:02:51.665Z,821.20
2018-05-27T04:03:51.681Z,821.20
2018-05-27T04:04:51.696Z,821.21
2018-05-27T04:05:51.708Z,821.20
2018-05-27T04:06:51.729Z,821.17
2018-05-27T04:07:51.736Z,821.18
2018-05-27T04:08:51.750Z,821.19
2018-05-27T04:09:51.764Z,821.22
2018-05-27T04:10:51.779Z,821.19
2018-05-27T04:11:51.792Z,821.20
2018-05-27T04:12:51.812Z,821.18
2018-05-27T04:13:51.824Z,821.22
2018-05-27T04:14:51.835Z,821.20
2018-05-27T04:15:51.848Z,821.24
2018-05-27T04:16:51.864Z,821.24
2018-05-27T04:17:51.877Z,821.29
2018-05-27T04:18:51.892Z,821.29
2018-05-27T04:19:51.908Z,821.32
2018-05-27T04:20:51.921Z,821.28
2018-05-27T04:21:51.934Z,821.31
2018-05-27T04:22:51.952Z,821.30
2018-05-27T04:23:51.963Z,821.30
2018-05-27T04:24:51.975Z,821.31
2018-05-27T04:25:51.991Z,821.29
2018-05-27T04:26:52.006Z,821.30
2018-05-27T04:27:52.019Z,821.28
2018-05-27T04:28:52.034Z,821.30
2018-05-27T04:29:52.047Z,821.32
2018-05-27T04:30:52.062Z,821.29
2018-05-27T04:31:52.078Z,821.33
2018-05-27T04:32:52.091Z,821.36
2018-05-27T04:33:52.104Z,821.35
2018-05-27T04:34:52.118Z,821.36
2018-05-27T04:35:52.132Z,821.38
2018-05-27T04:36:52.148Z,821.35
2018-05-27T04:37:52.162Z,821.37
2018-05-27T04:38:52.176Z,821.35
2018-05-27T04:39:52.191Z,821.37
2018-05-27T04:40:52.206Z,821.36
2018-05-27T04:41:52.221Z,821.36
2018-05-27T04:42:52.232Z,821.41
2018-05-27T04:43:52.247Z,821.41
2018-05-27T04:44:52.262Z,821.46
2018-05-27T04:45:52.274Z,821.47
2018-05-27T04:46:52.289Z,821.48
2018-05-27T04:47:52.304Z,821.51
2018-05-27T04:48:52.319Z,821.50
2018-05-27T04:49:52.332Z,821.50
2018-05-27T04:50:52.348Z,821.52
2018-05-27T04:51:52.364Z,821.54
2018-05-27T04:52:52.376Z,821.52
2018-05-27T04:53:52.389Z,821.51
2018-05-27T04:54:52.405Z,821.55
2018-05-27T04:55:52.421Z,821.53
2018-05-27T04:56:52.434Z,821.52
2018-05-27T04:57:52.449Z,821.57
2018-05-27T04:58:52.462Z,821.59
2018-05-27T04:59:52.476Z,821.59
2018-05-27T05:00:52.491Z,821.58
2018-05-27T05:01:52.507Z,821.62
2018-05-27T05:02:52.529Z,821.60
2018-05-27T05:03:52.535Z,821.63
2018-05-27T05:04:52.551Z,821.65
2018-05-27T05:05:52.565Z,821.62
2018-05-27T05:06:52.580Z,821.69
2018-05-27T05:07:52.595Z,821.70
2018-05-27T05:08:52.609Z,821.69
2018-05-27T05:09:52.623Z,821.69
2018-05-27T05:10:52.640Z,821.72
2018-05-27T05:11:52.653Z,821.66
2018-05-27T05:12:52.669Z,821.74
2018-05-27T05:13:52.682Z,821.76
2018-05-27T05:14:52.712Z,821.72
2018-05-27T05:15:52.717Z,821.79
2018-05-27T05:16:52.728Z,821.75
2018-05-27T05:17:52.743Z,821.73
2018-05-27T05:18:52.757Z,821.73
2018-05-27T05:19:52.772Z,821.75
2018-05-27T05:20:52.785Z,821.75
2018-05-27T05:21:52.802Z,821.73
2018-05-27T05:22:52.816Z,821.72
2018-05-27T05:23:52.832Z,821.73
2018-05-27T05:24:52.845Z,821.74
2018-05-27T05:25:52.860Z,821.73
2018-05-27T05:26:52.876Z,821.70
2018-05-27T05:27:52.889Z,821.72
2018-05-27T05:28:52.905Z,821.73
2018-05-27T05:29:52.918Z,821.76
2018-05-27T05:30:52.934Z,821.75
2018-05-27T05:31:52.949Z,821.72
2018-05-27T05:32:52.963Z,821.73
2018-05-27T05:33:52.976Z,821.74
2018-05-27T05:34:52.994Z,821.76
2018-05-27T05:35:53.012Z,821.73
2018-05-27T05:36:53.024Z,821.80
2018-05-27T05:37:53.037Z,821.73
2018-05-27T05:38:53.052Z,821.73
2018-05-27T05:39:53.068Z,821.71
2018-05-27T05:40:53.082Z,821.71
2018-05-27T05:41:53.096Z,821.72
2018-05-27T05:42:53.114Z,821.74
2018-05-27T05:43:53.126Z,821.71
2018-05-27T05:44:53.141Z,821.73
2018-05-27T05:45:53.156Z,821.78
2018-05-27T05:46:53.172Z,821.79
2018-05-27T05:47:53.186Z,821.77
2018-05-27T05:48:53.204Z,821.80
2018-05-27T05:49:53.215Z,821.84
2018-05-27T05:50:53.231Z,821.80
2018-05-27T05:51:53.248Z,821.82
2018-05-27T05:52:53.261Z,821.82
2018-05-27T05:53:53.275Z,821.86
2018-05-27T05:54:53.293Z,821.87
2018-05-27T05:55:53.308Z,821.92
2018-05-27T05:56:53.323Z,821.91
2018-05-27T05:57:53.337Z,821.91
2018-05-27T05:58:53.351Z,821.95
2018-05-27T05:59:53.367Z,821.95
2018-05-27T06:00:53.385Z,821.94
2018-05-27T06:01:53.397Z,821.97
2018-05-27T06:02:53.413Z,822.01
2018-05-27T06:03:53.429Z,822.00
2018-05-27T06:04:53.446Z,822.00
2018-05-27T06:05:53.460Z,822.01
2018-05-27T06:06:53.478Z,822.04
2018-05-27T06:07:53.490Z,822.05
2018-05-27T06:08:53.508Z,822.06
2018-05-27T06:09:53.520Z,822.12
2018-05-27T06:10:53.535Z,822.13
2018-05-27T06:11:53.552Z,822.15
2018-05-27T06:12:53.568Z,822.16
2018-05-27T06:13:53.579Z,822.14
2018-05-27T06:14:53.595Z,822.13
2018-05-27T06:15:53.610Z,822.15
2018-05-27T06:16:53.626Z,822.20
2018-05-27T06:17:53.639Z,822.21
2018-05-27T06:18:53.657Z,822.17
2018-05-27T06:19:53.671Z,822.20
2018-05-27T06:20:53.690Z,822.25
2018-05-27T06:21:53.701Z,822.23
2018-05-27T06:22:53.716Z,822.26
2018-05-27T06:23:53.731Z,822.26
2018-05-27T06:24:53.752Z,822.22
2018-05-27T06:25:53.763Z,822.23
2018-05-27T06:26:53.782Z,822.27
2018-05-27T06:27:53.793Z,822.28
2018-05-27T06:28:53.809Z,822.31
2018-05-27T06:29:53.824Z,822.26
2018-05-27T06:30:53.842Z,822.24
2018-05-27T06:31:53.853Z,822.27
2018-05-27T06:32:53.871Z,822.31
2018-05-27T06:33:53.885Z,822.27
2018-05-27T06:34:53.901Z,822.29
2018-05-27T06:35:53.919Z,822.29
2018-05-27T06:36:53.935Z,822.31
2018-05-27T06:37:53.948Z,822.30
2018-05-27T06:38:53.965Z,822.32
2018-05-27T06:39:53.979Z,822.32
2018-05-27T06:40:53.994Z,822.32
2018-05-27T06:41:54.008Z,822.33
2018-05-27T06:42:54.027Z,822.34
2018-05-27T06:43:54.041Z,822.39
2018-05-27T06:44:54.058Z,822.36
2018-05-27T06:45:54.072Z,822.36
2018-05-27T06:46:54.090Z,822.35
2018-05-27T06:47:54.107Z,822.35
2018-05-27T06:48:54.125Z,822.32
2018-05-27T06:49:54.138Z,822.35
2018-05-27T06:50:54.155Z,822.30
2018-05-27T06:51:54.166Z,822.36
2018-05-27T06:52:54.182Z,822.32
2018-05-27T06:53:54.196Z,822.33
2018-05-27T06:54:54.214Z,822.37
2018-05-27T06:55:54.229Z,822.39
2018-05-27T06:56:54.246Z,822.39
2018-05-27T06:57:54.258Z,822.38
2018-05-27T06:58:54.276Z,822.38
2018-05-27T06:59:54.290Z,822.41
2018-05-27T07:00:54.305Z,822.42
2018-05-27T07:01:54.323Z,822.42
2018-05-27T07:02:54.342Z,822.40
2018-05-27T07:03:54.354Z,822.42
2018-05-27T07:04:54.382Z,822.50
2018-05-27T07:05:54.394Z,822.47
2018-05-27T07:06:54.404Z,822.51
2018-05-27T07:07:54.424Z,822.50
2018-05-27T07:08:54.435Z,822.49
2018-05-27T07:09:54.451Z,822.48
2018-05-27T07:10:54.464Z,822.47
2018-05-27T07:11:54.481Z,822.53
2018-05-27T07:12:54.497Z,822.51
2018-05-27T07:13:54.514Z,822.52
2018-05-27T07:14:54.528Z,822.53
2018-05-27T07:15:54.549Z,822.51
2018-05-27T07:16:54.560Z,822.55
2018-05-27T07:17:54.574Z,822.54
2018-05-27T07:18:54.590Z,822.54
2018-05-27T07:19:54.605Z,822.52
2018-05-27T07:20:54.622Z,822.56
2018-05-27T07:21:54.640Z,822.57
2018-05-27T07:22:54.658Z,822.58
2018-05-27T07:23:54.679Z,822.61
2018-05-27T07:24:54.687Z,822.62
2018-05-27T07:25:54.713Z,822.63
2018-05-27T07:26:54.718Z,822.64
2018-05-27T07:27:54.737Z,822.65
2018-05-27T07:28:54.751Z,822.66
2018-05-27T07:29:54.769Z,822.69
2018-05-27T07:30:54.790Z,822.71
2018-05-27T07:31:54.805Z,822.74
2018-05-27T07:32:54.815Z,822.73
2018-05-27T07:33:54.840Z,822.69
2018-05-27T07:34:54.850Z,822.71
2018-05-27T07:35:54.870Z,822.65
2018-05-27T07:36:54.887Z,822.65
2018-05-27T07:37:54.895Z,822.68
2018-05-27T07:38:54.913Z,822.67
2018-05-27T07:39:54.929Z,822.68
2018-05-27T07:40:54.949Z,822.67
2018-05-27T07:41:54.963Z,822.63
2018-05-27T07:42:54.980Z,822.62
2018-05-27T07:43:54.995Z,822.64
2018-05-27T07:44:55.013Z,822.64
2018-05-27T07:45:55.026Z,822.60
2018-05-27T07:46:55.048Z,822.61
2018-05-27T07:47:55.066Z,822.63
2018-05-27T07:48:55.079Z,822.60
2018-05-27T07:49:55.095Z,822.61
2018-05-27T07:50:55.111Z,822.59
2018-05-27T07:51:55.128Z,822.57
2018-05-27T07:52:56.152Z,822.61
2018-05-27T07:53:55.160Z,822.54
2018-05-27T07:54:55.179Z,822.56
2018-05-27T07:55:55.195Z,822.54
2018-05-27T07:56:55.197Z,822.53
2018-05-27T07:57:55.979Z,822.53
2018-05-27T07:58:55.298Z,822.53
2018-05-27T07:59:55.316Z,822.51
2018-05-27T08:00:56.248Z,822.46
2018-05-27T08:01:56.800Z,822.45
2018-05-27T08:02:55.368Z,822.46
2018-05-27T08:03:56.385Z,822.41
2018-05-27T08:04:55.351Z,822.41
2018-05-27T08:05:55.363Z,822.38
2018-05-27T08:06:55.383Z,822.38
2018-05-27T08:07:55.404Z,822.36
2018-05-27T08:08:55.417Z,822.34
2018-05-27T08:09:55.434Z,822.35
2018-05-27T08:10:55.450Z,822.33
2018-05-27T08:11:55.470Z,822.31
2018-05-27T08:12:55.486Z,822.29
2018-05-27T08:13:55.500Z,822.26
2018-05-27T08:14:55.516Z,822.28
2018-05-27T08:15:55.535Z,822.23
2018-05-27T08:16:55.553Z,822.22
2018-05-27T08:17:55.569Z,822.19
2018-05-27T08:18:55.588Z,822.22
2018-05-27T08:19:55.620Z,822.15
2018-05-27T08:20:55.621Z,822.13
2018-05-27T08:21:55.638Z,822.16
2018-05-27T08:22:55.656Z,822.16
2018-05-27T08:23:55.675Z,822.15
2018-05-27T08:24:55.693Z,822.12
2018-05-27T08:25:55.708Z,822.13
2018-05-27T08:26:55.724Z,822.10
2018-05-27T08:27:55.745Z,822.11
2018-05-27T08:28:55.759Z,822.10
2018-05-27T08:29:55.775Z,822.12
2018-05-27T08:30:55.792Z,822.09
2018-05-27T08:31:55.811Z,822.10
2018-05-27T08:32:55.828Z,822.13
2018-05-27T08:33:55.848Z,822.15
2018-05-27T08:34:55.871Z,822.12
2018-05-27T08:35:55.880Z,822.13
2018-05-27T08:36:55.902Z,822.08
2018-05-27T08:37:55.915Z,822.08
2018-05-27T08:38:55.936Z,822.05
2018-05-27T08:39:55.949Z,822.03
2018-05-27T08:40:55.969Z,822.03
2018-05-27T08:41:55.985Z,821.98
2018-05-27T08:42:56.005Z,822.01
2018-05-27T08:43:56.020Z,822.03
2018-05-27T08:44:56.040Z,822.00
2018-05-27T08:45:56.057Z,821.97
2018-05-27T08:46:56.074Z,821.99
2018-05-27T08:47:56.095Z,821.97
2018-05-27T08:48:56.174Z,821.96
2018-05-27T08:49:56.126Z,821.93
2018-05-27T08:50:56.147Z,821.92
2018-05-27T08:51:56.163Z,821.91
2018-05-27T08:52:56.184Z,821.95
2018-05-27T08:53:56.198Z,821.94
2018-05-27T08:54:56.219Z,821.94
2018-05-27T08:55:56.235Z,821.94
2018-05-27T08:56:56.253Z,821.95
2018-05-27T08:57:56.270Z,821.94
2018-05-27T08:58:56.300Z,821.97
2018-05-27T08:59:56.306Z,821.97
2018-05-27T09:00:56.328Z,821.97
2018-05-27T09:01:56.346Z,821.97
2018-05-27T09:02:56.361Z,821.95
2018-05-27T09:03:56.378Z,821.93
2018-05-27T09:04:56.396Z,821.91
2018-05-27T09:05:56.413Z,821.92
2018-05-27T09:06:56.431Z,821.90
2018-05-27T09:07:56.451Z,821.88
2018-05-27T09:08:56.476Z,821.92
2018-05-27T09:09:56.486Z,821.85
2018-05-27T09:10:56.505Z,821.85
2018-05-27T09:11:56.522Z,821.85
2018-05-27T09:12:56.539Z,821.86
2018-05-27T09:13:56.557Z,821.81
2018-05-27T09:14:56.580Z,821.81
2018-05-27T09:15:56.593Z,821.86
2018-05-27T09:16:56.613Z,821.82
2018-05-27T09:17:56.633Z,821.85
2018-05-27T09:18:56.649Z,821.85
2018-05-27T09:19:56.667Z,821.81
2018-05-27T09:20:56.687Z,821.85
2018-05-27T09:21:56.706Z,821.84
2018-05-27T09:22:56.724Z,821.81
2018-05-27T09:23:56.743Z,821.83
2018-05-27T09:24:56.769Z,821.83
2018-05-27T09:25:56.778Z,821.82
2018-05-27T09:26:56.799Z,821.81
2018-05-27T09:27:56.817Z,821.78
2018-05-27T09:28:56.835Z,821.80
2018-05-27T09:29:56.851Z,821.79
2018-05-27T09:30:56.888Z,821.75
2018-05-27T09:31:56.890Z,821.76
2018-05-27T09:32:56.906Z,821.75
2018-05-27T09:33:56.925Z,821.76
2018-05-27T09:34:56.946Z,821.74
2018-05-27T09:35:56.964Z,821.75
2018-05-27T09:36:56.983Z,821.72
2018-05-27T09:37:57.006Z,821.73
2018-05-27T09:38:57.019Z,821.71
2018-05-27T09:39:57.038Z,821.67
2018-05-27T09:40:57.058Z,821.66
2018-05-27T09:41:57.076Z,821.64
2018-05-27T09:42:57.094Z,821.66
2018-05-27T09:43:57.111Z,821.63
2018-05-27T09:44:57.132Z,821.62
2018-05-27T09:45:57.151Z,821.61
2018-05-27T09:46:57.171Z,821.62
2018-05-27T09:47:57.188Z,821.62
2018-05-27T09:48:57.208Z,821.60
2018-05-27T09:49:57.226Z,821.58
2018-05-27T09:50:57.248Z,821.58
2018-05-27T09:51:57.264Z,821.54
2018-05-27T09:52:57.284Z,821.57
2018-05-27T09:53:57.301Z,821.55
2018-05-27T09:54:57.324Z,821.55
2018-05-27T09:55:57.343Z,821.56
2018-05-27T09:56:57.360Z,821.54
2018-05-27T09:57:57.429Z,821.57
2018-05-27T09:58:57.399Z,821.54
2018-05-27T09:59:57.455Z,821.53
2018-05-27T10:00:57.438Z,821.52
2018-05-27T10:01:57.455Z,821.56
2018-05-27T10:02:57.475Z,821.56
2018-05-27T10:03:57.492Z,821.55
2018-05-27T10:04:57.512Z,821.55
2018-05-27T10:05:57.534Z,821.58
2018-05-27T10:06:57.556Z,821.52
2018-05-27T10:07:57.568Z,821.53
2018-05-27T10:08:57.587Z,821.54
2018-05-27T10:09:57.612Z,821.56
2018-05-27T10:10:57.626Z,821.53
2018-05-27T10:11:57.643Z,821.56
2018-05-27T10:12:57.665Z,821.61
2018-05-27T10:13:57.679Z,821.62
2018-05-27T10:14:57.708Z,821.58
2018-05-27T10:15:57.718Z,821.61
2018-05-27T10:16:57.736Z,821.60
2018-05-27T10:17:57.754Z,821.62
2018-05-27T10:18:57.848Z,821.63
2018-05-27T10:19:57.796Z,821.60
2018-05-27T10:20:57.820Z,821.59
2018-05-27T10:21:57.828Z,821.56
2018-05-27T10:22:57.847Z,821.51
2018-05-27T10:23:57.868Z,821.50
2018-05-27T10:24:57.888Z,821.50
2018-05-27T10:25:57.923Z,821.45
2018-05-27T10:26:57.923Z,821.45
2018-05-27T10:27:57.944Z,821.42
2018-05-27T10:28:57.964Z,821.43
2018-05-27T10:29:57.981Z,821.44
2018-05-27T10:30:58.000Z,821.47
2018-05-27T10:31:58.020Z,821.45
2018-05-27T10:32:58.039Z,821.44
2018-05-27T10:33:58.058Z,821.44
2018-05-27T10:34:58.078Z,821.42
2018-05-27T10:35:58.097Z,821.43
2018-05-27T10:36:58.114Z,821.40
2018-05-27T10:37:58.135Z,821.41
2018-05-27T10:38:58.158Z,821.37
2018-05-27T10:39:58.175Z,821.38
2018-05-27T10:40:58.197Z,821.40
2018-05-27T10:41:58.217Z,821.36
2018-05-27T10:42:58.262Z,821.38
2018-05-27T10:43:58.262Z,821.38
2018-05-27T10:44:58.272Z,821.34
2018-05-27T10:45:58.293Z,821.38
2018-05-27T10:46:58.309Z,821.35
2018-05-27T10:47:58.329Z,821.36
2018-05-27T10:48:58.350Z,821.33
2018-05-27T10:49:58.366Z,821.34
2018-05-27T10:50:58.388Z,821.38
2018-05-27T10:51:58.406Z,821.34
2018-05-27T10:52:58.426Z,821.35
2018-05-27T10:53:58.446Z,821.36
2018-05-27T10:54:58.476Z,821.36
2018-05-27T10:55:58.487Z,821.32
2018-05-27T10:56:58.503Z,821.34
2018-05-27T10:57:58.522Z,821.33
2018-05-27T10:58:58.544Z,821.31
2018-05-27T10:59:58.626Z,821.32
2018-05-27T11:00:58.582Z,821.32
2018-05-27T11:01:58.602Z,821.34
2018-05-27T11:02:58.620Z,821.30
2018-05-27T11:03:58.641Z,821.27
2018-05-27T11:04:58.661Z,821.26
2018-05-27T11:05:58.695Z,821.30
2018-05-27T11:06:58.703Z,821.33
2018-05-27T11:07:58.721Z,821.33
2018-05-27T11:08:58.742Z,821.34
2018-05-27T11:09:58.761Z,821.31
2018-05-27T11:10:58.782Z,821.36
2018-05-27T11:11:58.801Z,821.34
2018-05-27T11:12:58.820Z,821.36
2018-05-27T11:13:58.845Z,821.36
2018-05-27T11:14:58.862Z,821.36
2018-05-27T11:15:58.883Z,821.32
2018-05-27T11:16:58.904Z,821.34
2018-05-27T11:17:58.923Z,821.28
2018-05-27T11:18:58.945Z,821.31
2018-05-27T11:19:58.963Z,821.31
2018-05-27T11:20:58.986Z,821.29
2018-05-27T11:21:59.007Z,821.28
2018-05-27T11:22:59.032Z,821.27
2018-05-27T11:23:59.046Z,821.26
2018-05-27T11:24:59.069Z,821.23
2018-05-27T11:25:59.088Z,821.21
2018-05-27T11:26:59.109Z,821.15
2018-05-27T11:27:59.129Z,821.14
2018-05-27T11:28:59.152Z,821.19
2018-05-27T11:29:59.170Z,821.16
2018-05-27T11:30:59.196Z,821.17
2018-05-27T11:31:59.213Z,821.17
2018-05-27T11:32:59.234Z,821.16
2018-05-27T11:33:59.255Z,821.18
2018-05-27T11:34:59.275Z,821.16
2018-05-27T11:35:59.301Z,821.18
2018-05-27T11:36:59.413Z,821.18
2018-05-27T11:37:59.340Z,821.12
2018-05-27T11:38:59.362Z,821.16
2018-05-27T11:39:59.385Z,821.11
2018-05-27T11:40:59.405Z,821.12
2018-05-27T11:41:59.428Z,821.09
2018-05-27T11:42:59.448Z,821.10
2018-05-27T11:43:59.474Z,821.12
2018-05-27T11:44:59.493Z,821.05
2018-05-27T11:45:59.511Z,821.07
2018-05-27T11:46:59.535Z,821.09
2018-05-27T11:47:59.559Z,821.06
2018-05-27T11:48:59.580Z,821.07
2018-05-27T11:49:59.602Z,821.07
2018-05-27T11:50:59.623Z,821.08
2018-05-27T11:51:59.646Z,821.07
2018-05-27T11:52:59.666Z,821.07
2018-05-27T11:53:59.690Z,821.00
2018-05-27T11:54:59.710Z,821.01
2018-05-27T11:55:59.733Z,821.00
2018-05-27T11:56:59.755Z,820.99
2018-05-27T11:57:59.777Z,820.98
2018-05-27T11:58:59.802Z,820.95
2018-05-27T11:59:59.822Z,820.96
2018-05-27T12:00:59.844Z,820.93
2018-05-27T12:01:59.893Z,820.95
2018-05-27T12:02:59.887Z,820.93
2018-05-27T12:03:59.911Z,820.95
2018-05-27T12:04:59.931Z,820.93
2018-05-27T12:05:59.951Z,820.92
2018-05-27T12:06:59.973Z,820.90
2018-05-27T12:07:59.994Z,820.91
2018-05-27T12:09:00.042Z,820.91
2018-05-27T12:10:00.043Z,820.91
2018-05-27T12:11:00.059Z,820.90
2018-05-27T12:12:00.081Z,820.88
2018-05-27T12:13:00.106Z,820.91
2018-05-27T12:14:00.128Z,820.88
2018-05-27T12:15:00.150Z,820.85
2018-05-27T12:16:00.219Z,820.86
2018-05-27T12:17:00.192Z,820.83
2018-05-27T12:18:00.213Z,820.80
2018-05-27T12:19:00.234Z,820.83
2018-05-27T12:20:00.259Z,820.82
2018-05-27T12:21:00.280Z,820.75
2018-05-27T12:22:00.303Z,820.74
2018-05-27T12:23:00.323Z,820.72
2018-05-27T12:24:00.347Z,820.77
2018-05-27T12:25:00.368Z,820.71
2018-05-27T12:26:00.389Z,820.72
2018-05-27T12:27:00.411Z,820.71
2018-05-27T12:28:00.432Z,820.67
2018-05-27T12:29:00.458Z,820.67